Time;durP1;ratioP1;P1;durP2;ratioP2;P2;SDS_P1;SDS_P2;PMS_P1;PMS_P2;Temp;Humidity;BMP_temperature;BMP_pressure;BME280_temperature;BME280_humidity;BME280_pressure;Samples;Min_cycle;Max_cycle;Signal;HPM_P1;HPM_P2
2023/01/28 00:00:53;;;;;;;5.27;3.33;;;0.40;99.90;-0.40;101335;;;;551041;257;24142;-78
2023/01/28 00:03:21;;;;;;;4.47;3.77;;;0.40;99.90;-0.40;101338;;;;556581;256;24121;-74
2023/01/28 00:05:49;;;;;;;4.77;3.53;;;0.40;99.90;-0.40;101342;;;;548897;257;24170;-73
2023/01/28 00:08:16;;;;;;;4.67;3.70;;;0.40;99.90;-0.40;101347;;;;550776;257;24117;-73
2023/01/28 00:10:44;;;;;;;6.53;3.73;;;0.30;99.90;-0.40;101344;;;;550633;257;24125;-77
2023/01/28 00:13:15;;;;;;;4.80;3.70;;;0.30;99.90;-0.40;101349;;;;551095;257;24111;-78
2023/01/28 00:15:43;;;;;;;4.93;3.73;;;0.30;99.90;-0.40;101350;;;;548957;257;24135;-78
2023/01/28 00:18:11;;;;;;;5.20;3.90;;;0.30;99.90;-0.40;101342;;;;551066;257;24172;-74
2023/01/28 00:20:39;;;;;;;4.37;3.97;;;0.30;99.90;-0.40;101335;;;;551821;257;24140;-76
2023/01/28 00:23:07;;;;;;;4.50;4.10;;;0.30;99.90;-0.50;101334;;;;552181;257;24223;-74
2023/01/28 00:25:35;;;;;;;4.97;3.70;;;0.30;99.90;-0.40;101330;;;;551945;257;24127;-78
2023/01/28 00:28:04;;;;;;;3.57;3.23;;;0.30;99.90;-0.40;101333;;;;551789;257;24101;-76
2023/01/28 00:30:32;;;;;;;6.13;4.03;;;0.30;99.90;-0.40;101333;;;;551613;257;24162;-77
2023/01/28 00:33:00;;;;;;;4.50;4.00;;;0.30;99.90;-0.50;101340;;;;551577;257;24123;-78
2023/01/28 00:35:28;;;;;;;6.63;4.10;;;0.30;99.90;-0.50;101339;;;;551565;257;24111;-78
2023/01/28 00:37:56;;;;;;;5.07;4.50;;;0.30;99.90;-0.50;101332;;;;551599;257;24124;-76
2023/01/28 00:40:24;;;;;;;7.17;4.90;;;0.30;99.90;-0.50;101335;;;;551339;257;24129;-79
2023/01/28 00:42:53;;;;;;;4.77;4.33;;;0.30;99.90;-0.50;101339;;;;551289;257;24141;-77
2023/01/28 00:45:20;;;;;;;7.13;4.30;;;0.30;99.90;-0.50;101339;;;;551289;257;24108;-76
2023/01/28 00:47:48;;;;;;;5.13;4.33;;;0.30;99.90;-0.50;101339;;;;551308;257;24136;-76
2023/01/28 00:50:17;;;;;;;7.17;4.53;;;0.30;99.90;-0.40;101336;;;;551282;257;24114;-74
2023/01/28 00:52:45;;;;;;;4.93;4.10;;;0.30;99.90;-0.40;101323;;;;557193;257;24156;-77
2023/01/28 00:55:16;;;;;;;4.53;3.60;;;0.30;99.90;-0.40;101327;;;;551399;257;24116;-75
2023/01/28 00:57:40;;;;;;;4.67;4.10;;;0.30;99.90;-0.50;101328;;;;548883;257;24147;-77
2023/01/28 01:00:09;;;;;;;4.13;3.53;;;0.30;99.90;-0.50;101325;;;;551318;257;25144;-74
2023/01/28 01:02:37;;;;;;;4.90;4.20;;;0.30;99.90;-0.50;101328;;;;549074;257;24113;-75
2023/01/28 01:05:10;;;;;;;4.63;3.60;;;0.30;99.90;-0.50;101322;;;;556816;257;24199;-75
2023/01/28 01:07:40;;;;;;;4.17;3.60;;;0.30;99.90;-0.50;101325;;;;556302;257;24122;-74
2023/01/28 01:10:02;;;;;;;4.50;4.00;;;0.30;99.90;-0.40;101330;;;;550630;257;24124;-74
2023/01/28 01:12:30;;;;;;;5.43;3.73;;;0.30;99.90;-0.50;101311;;;;550695;257;24163;-74
2023/01/28 01:14:58;;;;;;;6.07;4.53;;;0.30;99.90;-0.50;101320;;;;551030;257;25227;-73
2023/01/28 01:17:26;;;;;;;4.33;3.80;;;0.30;99.90;-0.50;101325;;;;551067;257;24208;-75
2023/01/28 01:19:54;;;;;;;5.63;3.80;;;0.30;99.90;-0.50;101327;;;;550962;257;24140;-74
2023/01/28 01:22:21;;;;;;;6.50;4.10;;;0.30;99.90;-0.50;101328;;;;551062;257;24165;-75
2023/01/28 01:24:49;;;;;;;6.90;3.80;;;0.30;99.90;-0.50;101318;;;;551001;257;24167;-74
2023/01/28 01:27:17;;;;;;;4.97;3.70;;;0.30;99.90;-0.50;101329;;;;551046;257;25161;-75
2023/01/28 01:29:45;;;;;;;4.07;3.37;;;0.30;99.90;-0.50;101323;;;;548927;257;24108;-75
2023/01/28 01:32:14;;;;;;;4.63;3.90;;;0.30;99.90;-0.50;101323;;;;551814;257;24185;-74
2023/01/28 01:34:42;;;;;;;4.63;3.40;;;0.30;99.90;-0.50;101336;;;;552166;257;24124;-74
2023/01/28 01:37:10;;;;;;;3.80;3.43;;;0.30;99.90;-0.50;101334;;;;551875;257;24195;-73
2023/01/28 01:39:38;;;;;;;4.13;3.30;;;0.30;99.90;-0.50;101335;;;;551754;257;25492;-74
2023/01/28 01:42:06;;;;;;;3.97;3.13;;;0.30;99.90;-0.50;101332;;;;551620;257;24109;-74
2023/01/28 01:45:07;;;;;;;6.57;3.07;;;0.30;99.90;-0.50;101325;;;;549391;257;24127;-74
2023/01/28 01:47:43;;;;;;;3.33;3.03;;;0.30;99.90;-0.50;101330;;;;551036;260;24187;-74
2023/01/28 01:50:32;;;;;;;3.83;3.47;;;0.30;99.90;-0.50;101328;;;;549293;257;24108;-73
2023/01/28 01:53:07;;;;;;;5.73;3.27;;;0.30;99.90;-0.50;101320;;;;542328;260;24218;-76
2023/01/28 01:55:31;;;;;;;3.27;2.90;;;0.30;99.90;-0.50;101323;;;;556480;257;25200;-79
2023/01/28 01:57:59;;;;;;;3.90;3.07;;;0.30;99.90;-0.50;101323;;;;548891;257;24143;-75
2023/01/28 02:00:27;;;;;;;3.73;3.33;;;0.30;99.90;-0.50;101315;;;;558665;257;24124;-81
2023/01/28 02:02:58;;;;;;;3.70;3.40;;;0.30;99.90;-0.50;101313;;;;549243;257;24137;-79
2023/01/28 02:05:23;;;;;;;4.53;3.70;;;0.30;99.90;-0.50;101322;;;;549346;257;24135;-79
2023/01/28 02:07:53;;;;;;;3.80;3.40;;;0.30;99.90;-0.50;101322;;;;556821;257;24147;-79
2023/01/28 02:10:19;;;;;;;4.13;3.57;;;0.30;99.90;-0.50;101317;;;;557522;257;24161;-78
2023/01/28 02:12:52;;;;;;;3.80;3.20;;;0.30;99.90;-0.50;101312;;;;550881;257;24140;-80
2023/01/28 02:15:20;;;;;;;4.33;3.70;;;0.30;99.90;-0.50;101314;;;;549183;257;24149;-79
2023/01/28 02:17:48;;;;;;;3.80;3.50;;;0.20;99.90;-0.50;101316;;;;549135;257;24139;-80
2023/01/28 02:20:25;;;;;;;5.27;3.77;;;0.30;99.90;-0.50;101320;;;;548963;257;24132;-77
2023/01/28 02:23:21;;;;;;;4.53;3.43;;;0.20;99.90;-0.50;101321;;;;547317;257;24136;-79
2023/01/28 02:26:10;;;;;;;3.83;3.50;;;0.20;99.90;-0.50;101324;;;;546042;257;24149;-79
2023/01/28 02:28:59;;;;;;;5.53;3.33;;;0.20;99.90;-0.50;101326;;;;548494;257;24106;-79
2023/01/28 02:31:27;;;;;;;4.00;3.60;;;0.20;99.90;-0.50;101321;;;;548922;257;24157;-81
2023/01/28 02:34:31;;;;;;;4.10;3.27;;;0.20;99.90;-0.50;101312;;;;548801;257;24131;-80
2023/01/28 02:37:17;;;;;;;4.00;3.40;;;0.20;99.90;-0.50;101320;;;;557108;257;24138;-77
2023/01/28 02:39:45;;;;;;;4.33;3.30;;;0.30;99.90;-0.50;101316;;;;557053;257;24128;-80
2023/01/28 02:42:19;;;;;;;3.60;3.30;;;0.20;99.90;-0.50;101312;;;;558156;257;24131;-79
2023/01/28 02:44:47;;;;;;;3.73;3.43;;;0.20;99.90;-0.60;101315;;;;559193;255;24130;-76
2023/01/28 02:50:04;;;;;;;4.67;3.23;;;0.30;99.90;-0.60;101312;;;;549697;257;24157;-80
2023/01/28 02:55:44;;;;;;;3.57;2.40;;;0.20;99.90;-0.60;101310;;;;557561;256;24134;-80
2023/01/28 02:58:25;;;;;;;3.97;3.50;;;0.30;99.90;-0.60;101317;;;;548919;257;24121;-79
2023/01/28 03:01:11;;;;;;;4.30;3.13;;;0.20;99.90;-0.50;101314;;;;552471;257;24132;-81
2023/01/28 03:04:15;;;;;;;3.77;3.47;;;0.30;99.90;-0.50;101306;;;;548398;257;24135;-81
2023/01/28 03:06:49;;;;;;;6.33;3.60;;;0.30;99.90;-0.50;101304;;;;550836;260;24198;-79
2023/01/28 03:09:23;;;;;;;4.53;3.87;;;0.30;99.90;-0.50;101314;;;;548716;257;24165;-77
2023/01/28 03:37:09;;;;;;;5.97;3.90;;;0.30;99.90;-0.50;101299;;;;548990;257;24153;-80
2023/01/28 03:39:34;;;;;;;4.77;4.23;;;0.30;99.90;-0.50;101300;;;;548746;257;24121;-76
2023/01/28 03:42:02;;;;;;;4.87;4.20;;;0.30;99.90;-0.50;101296;;;;551155;257;24151;-78
2023/01/28 03:47:16;;;;;;;4.83;4.37;;;0.20;99.90;-0.60;101292;;;;552775;257;24116;-79
2023/01/28 03:49:44;;;;;;;4.33;4.00;;;0.20;99.90;-0.60;101286;;;;552757;257;24120;-78
2023/01/28 03:52:16;;;;;;;4.43;4.03;;;0.20;99.90;-0.60;101300;;;;558297;257;25207;-75
2023/01/28 03:54:40;;;;;;;5.13;4.60;;;0.20;99.90;-0.60;101302;;;;552681;255;24114;-77
2023/01/28 03:57:08;;;;;;;6.47;4.17;;;0.20;99.90;-0.60;101293;;;;552303;257;24202;-78
2023/01/28 03:59:36;;;;;;;4.53;3.80;;;0.20;99.90;-0.60;101291;;;;551764;257;24134;-75
2023/01/28 04:02:05;;;;;;;3.70;3.40;;;0.20;99.90;-0.60;101290;;;;551499;257;24108;-73
2023/01/28 04:04:32;;;;;;;4.50;3.77;;;0.20;99.90;-0.60;101296;;;;551292;257;24170;-73
2023/01/28 04:07:00;;;;;;;4.03;3.53;;;0.20;99.90;-0.60;101298;;;;551233;257;24175;-78
2023/01/28 04:09:28;;;;;;;4.73;3.70;;;0.30;99.90;-0.50;101299;;;;551142;257;24158;-76
2023/01/28 04:11:57;;;;;;;4.17;3.83;;;0.30;99.90;-0.50;101301;;;;557439;257;24119;-76
2023/01/28 04:14:25;;;;;;;4.77;3.83;;;0.30;99.90;-0.50;101298;;;;551393;257;24127;-78
2023/01/28 04:16:53;;;;;;;4.87;3.60;;;0.30;99.90;-0.50;101300;;;;551164;257;24171;-78
2023/01/28 04:19:21;;;;;;;3.77;3.47;;;0.30;99.90;-0.50;101293;;;;551696;257;24126;-80
2023/01/28 04:21:51;;;;;;;4.20;3.50;;;0.30;99.90;-0.50;101287;;;;549437;257;24110;-80
2023/01/28 04:24:16;;;;;;;5.07;3.87;;;0.30;99.90;-0.50;101293;;;;546088;257;24135;-80
2023/01/28 04:26:45;;;;;;;4.73;4.10;;;0.30;99.90;-0.50;101299;;;;550920;257;24123;-76
2023/01/28 04:29:13;;;;;;;4.70;4.30;;;0.30;99.90;-0.50;101302;;;;556928;257;24158;-76
2023/01/28 04:31:44;;;;;;;5.77;4.13;;;0.30;99.90;-0.50;101293;;;;550838;257;24136;-75
2023/01/28 04:34:09;;;;;;;5.37;4.50;;;0.30;99.90;-0.50;101301;;;;548517;257;24138;-75
2023/01/28 04:36:38;;;;;;;4.30;3.90;;;0.30;99.90;-0.50;101299;;;;548604;257;24131;-74
2023/01/28 04:39:05;;;;;;;4.13;3.53;;;0.30;99.90;-0.50;101290;;;;550664;257;24132;-77
2023/01/28 04:41:33;;;;;;;6.03;4.47;;;0.30;99.90;-0.50;101291;;;;550815;257;24121;-77
2023/01/28 04:44:01;;;;;;;4.50;4.07;;;0.30;99.90;-0.50;101291;;;;550707;257;24116;-75
2023/01/28 04:46:29;;;;;;;5.00;4.03;;;0.30;99.90;-0.50;101292;;;;550621;257;24141;-74
2023/01/28 04:48:57;;;;;;;5.93;4.20;;;0.30;99.90;-0.50;101285;;;;550801;257;24114;-74
2023/01/28 04:51:25;;;;;;;5.60;4.27;;;0.30;99.90;-0.50;101291;;;;550591;257;24121;-75
2023/01/28 04:53:53;;;;;;;5.10;4.10;;;0.30;99.90;-0.50;101287;;;;550812;257;24141;-74
2023/01/28 04:56:21;;;;;;;5.53;4.47;;;0.30;99.90;-0.50;101291;;;;550658;257;24127;-74
2023/01/28 04:58:49;;;;;;;5.83;4.43;;;0.30;99.90;-0.50;101295;;;;550737;257;24143;-74
2023/01/28 05:01:17;;;;;;;6.53;4.80;;;0.30;99.90;-0.50;101294;;;;550692;257;24174;-74
2023/01/28 05:03:44;;;;;;;5.87;4.33;;;0.30;99.90;-0.50;101295;;;;550662;257;24136;-81
2023/01/28 05:06:12;;;;;;;7.83;4.67;;;0.30;99.90;-0.50;101299;;;;551132;255;24127;-78
2023/01/28 05:08:40;;;;;;;6.37;4.67;;;0.30;99.90;-0.50;101302;;;;551985;257;24131;-81
2023/01/28 05:11:08;;;;;;;6.43;5.00;;;0.30;99.90;-0.50;101300;;;;551802;257;24117;-79
2023/01/28 05:13:36;;;;;;;5.83;4.67;;;0.30;99.90;-0.50;101307;;;;557764;257;24120;-79
2023/01/28 05:16:08;;;;;;;6.28;5.10;;;0.30;99.90;-0.50;101306;;;;546929;257;35505;-79
2023/01/28 05:18:32;;;;;;;5.53;2.97;;;0.30;99.90;-0.50;101303;;;;547990;257;24139;-79
2023/01/28 05:21:00;;;;;;;6.13;3.17;;;0.30;99.90;-0.50;101309;;;;551210;257;24142;-80
2023/01/28 05:23:28;;;;;;;4.60;4.17;;;0.30;99.90;-0.50;101309;;;;551309;257;24123;-79
2023/01/28 05:25:56;;;;;;;8.07;4.30;;;0.30;99.90;-0.50;101304;;;;551056;257;24117;-74
2023/01/28 05:28:24;;;;;;;4.20;3.90;;;0.40;99.90;-0.50;101313;;;;551156;257;24143;-79
2023/01/28 05:30:51;;;;;;;7.53;5.20;;;0.40;99.90;-0.50;101306;;;;548954;257;24127;-80
2023/01/28 05:33:19;;;;;;;4.73;4.20;;;0.30;99.90;-0.50;101306;;;;550905;257;24132;-80
2023/01/28 05:35:48;;;;;;;6.80;4.87;;;0.30;99.90;-0.50;101302;;;;551155;257;24112;-80
2023/01/28 05:38:19;;;;;;;9.57;4.90;;;0.40;99.90;-0.50;101305;;;;551065;257;24136;-81
2023/01/28 05:40:43;;;;;;;6.43;4.70;;;0.30;99.90;-0.50;101304;;;;548768;257;24163;-78
2023/01/28 05:43:11;;;;;;;7.17;5.37;;;0.30;99.90;-0.50;101299;;;;550914;257;24118;-80
2023/01/28 05:45:39;;;;;;;7.10;5.33;;;0.30;99.90;-0.50;101303;;;;550610;257;24166;-73
2023/01/28 05:48:10;;;;;;;6.97;5.40;;;-0.20;99.90;-0.60;101302;;;;545908;257;46271;-75
2023/01/28 05:50:35;;;;;;;5.90;4.37;;;0.20;99.90;-0.60;101313;;;;556243;257;24147;-74
2023/01/28 05:53:03;;;;;;;6.03;3.43;;;0.20;99.90;-0.70;101304;;;;550782;257;24113;-76
2023/01/28 05:55:31;;;;;;;10.73;5.87;;;0.10;99.90;-0.70;101311;;;;557953;257;24142;-75
2023/01/28 05:57:58;;;;;;;11.93;6.63;;;0.10;99.90;-0.80;101301;;;;548108;257;24174;-74
2023/01/28 06:00:29;;;;;;;11.10;7.37;;;0.00;99.90;-0.80;101313;;;;547832;257;24117;-75
2023/01/28 06:02:54;;;;;;;9.03;7.13;;;0.00;99.90;-0.80;101310;;;;548445;257;24158;-75
2023/01/28 06:05:22;;;;;;;11.13;6.40;;;0.00;99.90;-0.90;101299;;;;550779;257;24140;-75
2023/01/28 06:07:50;;;;;;;9.27;6.80;;;-0.10;99.90;-0.90;101302;;;;547857;257;24117;-75
2023/01/28 06:10:18;;;;;;;8.30;6.43;;;-0.10;99.90;-0.90;101307;;;;548722;257;25267;-76
2023/01/28 06:12:46;;;;;;;8.13;6.47;;;-0.10;99.90;-0.80;101309;;;;547819;257;24131;-75
2023/01/28 06:15:15;;;;;;;6.90;6.27;;;-0.10;99.90;-0.80;101304;;;;547732;257;24158;-74
2023/01/28 06:17:43;;;;;;;9.67;6.70;;;-0.10;99.90;-0.80;101304;;;;548078;255;24136;-75
2023/01/28 06:20:11;;;;;;;7.40;5.83;;;-0.10;99.90;-0.80;101308;;;;549393;257;24175;-76
2023/01/28 06:22:41;;;;;;;6.80;6.03;;;0.10;99.90;-0.90;101302;;;;549797;257;24232;-76
2023/01/28 06:25:07;;;;;;;8.87;6.37;;;0.00;99.90;-0.90;101296;;;;549616;257;24125;-75
2023/01/28 06:27:35;;;;;;;6.97;5.40;;;-0.10;99.90;-0.90;101295;;;;549519;257;24162;-74
2023/01/28 06:30:03;;;;;;;5.73;5.13;;;-0.10;99.90;-0.90;101294;;;;548611;257;24135;-74
2023/01/28 06:32:32;;;;;;;6.30;5.70;;;-0.10;99.90;-1.00;101296;;;;549377;257;24136;-77
2023/01/28 06:35:00;;;;;;;6.50;5.47;;;-0.10;99.90;-0.90;101293;;;;548432;257;25163;-74
2023/01/28 06:37:28;;;;;;;6.17;4.87;;;-0.10;99.90;-1.00;101307;;;;549167;257;24117;-74
2023/01/28 06:39:56;;;;;;;6.77;5.40;;;-0.10;99.90;-1.00;101311;;;;548346;257;24101;-74
2023/01/28 06:42:24;;;;;;;5.20;4.70;;;-0.10;99.90;-1.00;101310;;;;548450;257;24112;-75
2023/01/28 06:44:51;;;;;;;6.17;5.17;;;-0.10;99.90;-1.00;101310;;;;548478;257;24176;-80
2023/01/28 06:47:19;;;;;;;6.27;5.67;;;-0.10;99.90;-1.00;101317;;;;548551;257;24119;-80
2023/01/28 06:49:47;;;;;;;6.43;5.40;;;-0.10;99.90;-1.00;101319;;;;548684;257;24119;-78
2023/01/28 06:52:16;;;;;;;6.47;5.77;;;-0.10;99.90;-1.00;101316;;;;548989;257;24161;-76
2023/01/28 06:54:44;;;;;;;6.20;5.60;;;-0.20;99.90;-1.00;101325;;;;548499;257;24168;-74
2023/01/28 06:57:12;;;;;;;6.70;5.23;;;-0.10;99.90;-1.00;101320;;;;548564;257;24143;-79
2023/01/28 06:59:40;;;;;;;9.30;6.43;;;-0.10;99.90;-1.00;101323;;;;548968;257;24154;-76
2023/01/28 07:02:08;;;;;;;8.07;6.20;;;-0.10;99.90;-1.00;101321;;;;547973;257;24121;-75
2023/01/28 07:04:36;;;;;;;9.57;6.60;;;-0.10;99.90;-1.00;101321;;;;548166;257;24161;-74
2023/01/28 07:07:03;;;;;;;7.10;6.30;;;-0.10;99.90;-0.90;101306;;;;547751;257;24121;-75
2023/01/28 07:09:31;;;;;;;10.00;7.62;;;-0.10;99.90;-0.90;101312;;;;543157;257;35545;-76
2023/01/28 07:11:59;;;;;;;6.20;4.00;;;-0.10;99.90;-0.90;101318;;;;547855;257;24106;-74
2023/01/28 07:14:27;;;;;;;8.40;5.63;;;-0.10;99.90;-0.90;101322;;;;547775;257;24135;-75
2023/01/28 07:16:55;;;;;;;8.10;7.03;;;0.00;99.90;-0.90;101319;;;;547740;257;24145;-73
2023/01/28 07:19:23;;;;;;;7.30;6.33;;;0.00;99.90;-0.90;101327;;;;550641;257;24185;-74
2023/01/28 07:21:51;;;;;;;8.50;6.47;;;0.00;99.90;-0.80;101323;;;;551038;257;24117;-74
2023/01/28 07:24:19;;;;;;;7.73;6.60;;;0.00;99.90;-0.80;101320;;;;551021;257;24170;-74
2023/01/28 07:26:47;;;;;;;9.60;6.70;;;0.10;99.90;-0.80;101324;;;;551022;257;24111;-74
2023/01/28 07:29:15;;;;;;;6.87;5.90;;;0.10;99.90;-0.80;101326;;;;547543;255;24139;-75
2023/01/28 07:31:43;;;;;;;11.73;7.13;;;0.10;99.90;-0.80;101327;;;;552313;257;24249;-75
2023/01/28 07:34:11;;;;;;;10.30;6.67;;;0.10;99.90;-0.80;101328;;;;549034;257;24109;-75
2023/01/28 07:36:40;;;;;;;8.03;6.07;;;0.20;99.90;-0.70;101328;;;;548852;257;24116;-75
2023/01/28 07:39:08;;;;;;;9.93;6.50;;;0.10;99.90;-0.70;101333;;;;549461;257;24192;-77
2023/01/28 07:41:36;;;;;;;7.73;5.33;;;0.20;99.90;-0.70;101332;;;;551527;257;24155;-75
2023/01/28 07:44:08;;;;;;;9.07;6.17;;;0.20;99.90;-0.70;101332;;;;551517;257;24164;-77
2023/01/28 07:46:32;;;;;;;6.57;5.93;;;0.20;99.90;-0.60;101331;;;;549118;257;24121;-77
2023/01/28 07:49:00;;;;;;;6.60;5.93;;;0.30;99.90;-0.60;101340;;;;551334;257;24116;-77
2023/01/28 07:51:28;;;;;;;6.77;5.60;;;0.30;99.90;-0.60;101333;;;;551353;257;24163;-76
2023/01/28 07:54:00;;;;;;;6.83;6.13;;;0.30;99.90;-0.50;101333;;;;551303;257;24170;-77
2023/01/28 07:56:28;;;;;;;7.27;5.80;;;0.30;99.90;-0.50;101332;;;;547789;257;24116;-74
2023/01/28 07:58:53;;;;;;;6.97;5.83;;;0.40;99.90;-0.50;101332;;;;557947;257;24129;-74
2023/01/28 08:01:21;;;;;;;7.50;5.70;;;0.40;99.90;-0.40;101334;;;;550901;257;24120;-74
2023/01/28 08:03:49;;;;;;;7.37;5.27;;;0.40;99.90;-0.40;101328;;;;551075;257;24248;-75
2023/01/28 08:06:16;;;;;;;7.90;6.13;;;0.50;99.90;-0.30;101325;;;;550835;257;24167;-73
2023/01/28 08:08:44;;;;;;;7.80;6.17;;;0.50;99.90;-0.30;101317;;;;550812;257;24184;-74
2023/01/28 08:11:12;;;;;;;8.27;6.60;;;0.50;99.90;-0.30;101312;;;;550638;257;24122;-75
2023/01/28 08:13:40;;;;;;;7.20;6.10;;;0.60;99.90;-0.20;101318;;;;550644;257;24183;-79
2023/01/28 08:16:08;;;;;;;8.07;6.43;;;0.60;99.90;-0.20;101315;;;;550822;257;24109;-75
2023/01/28 08:18:36;;;;;;;8.47;6.57;;;0.70;99.90;-0.10;101329;;;;556972;257;24163;-80
2023/01/28 08:21:04;;;;;;;9.80;7.20;;;0.70;99.90;-0.10;101314;;;;551076;257;24136;-78
2023/01/28 08:23:33;;;;;;;11.57;7.40;;;0.80;99.90;-0.10;101310;;;;550730;257;24117;-78
2023/01/28 08:26:00;;;;;;;12.87;7.03;;;0.80;99.90;0.00;101310;;;;547874;257;24125;-74
2023/01/28 08:28:29;;;;;;;10.47;6.07;;;0.80;99.90;0.00;101314;;;;550790;257;24117;-75
2023/01/28 08:30:56;;;;;;;8.43;6.00;;;0.90;99.90;0.10;101319;;;;550697;257;24165;-79
2023/01/28 08:33:24;;;;;;;11.03;6.63;;;0.90;99.90;0.10;101321;;;;548589;257;24563;-75
2023/01/28 08:35:52;;;;;;;11.23;6.67;;;0.90;99.90;0.20;101316;;;;550723;257;24119;-74
2023/01/28 08:38:20;;;;;;;7.57;5.67;;;1.00;99.90;0.20;101323;;;;550826;257;24121;-75
2023/01/28 08:40:54;;;;;;;6.83;5.57;;;1.10;99.90;0.20;101317;;;;550840;255;24153;-80
2023/01/28 08:43:19;;;;;;;5.43;4.30;;;1.10;99.90;0.30;101325;;;;543163;259;24301;-80
2023/01/28 08:45:44;;;;;;;8.73;4.50;;;1.10;99.90;0.30;101323;;;;549213;257;24139;-80
2023/01/28 08:48:12;;;;;;;5.13;4.10;;;1.20;99.90;0.40;101332;;;;551380;257;24112;-76
2023/01/28 08:50:40;;;;;;;6.90;3.83;;;1.20;99.90;0.40;101333;;;;549157;257;24115;-79
2023/01/28 08:53:10;;;;;;;6.13;4.53;;;1.30;99.90;0.40;101328;;;;551200;257;25204;-79
2023/01/28 08:55:38;;;;;;;5.37;4.03;;;1.30;99.90;0.50;101333;;;;549380;257;24172;-75
2023/01/28 08:58:06;;;;;;;5.37;3.67;;;1.30;99.90;0.50;101326;;;;551166;257;24187;-75
2023/01/28 09:00:34;;;;;;;4.83;3.83;;;1.40;99.90;0.50;101336;;;;548764;257;24167;-73
2023/01/28 09:03:05;;;;;;;5.30;3.90;;;1.40;99.90;0.60;101340;;;;548851;257;24193;-75
2023/01/28 09:05:32;;;;;;;3.47;3.20;;;1.40;99.90;0.60;101337;;;;548598;257;24194;-78
2023/01/28 09:07:58;;;;;;;6.97;3.60;;;1.40;99.90;0.60;101333;;;;550985;257;24166;-76
2023/01/28 09:10:25;;;;;;;5.70;3.50;;;1.50;99.90;0.60;101338;;;;542453;260;24271;-80
2023/01/28 09:12:53;;;;;;;3.40;3.07;;;1.50;99.90;0.70;101330;;;;548761;257;24149;-79
2023/01/28 09:15:22;;;;;;;4.37;3.40;;;1.60;99.90;0.80;101333;;;;551000;257;24174;-79
2023/01/28 09:17:50;;;;;;;5.43;3.83;;;1.60;99.90;0.80;101339;;;;550718;257;24121;-80
2023/01/28 09:20:18;;;;;;;5.30;2.90;;;1.60;99.90;0.90;101338;;;;556773;257;24212;-79
2023/01/28 09:22:49;;;;;;;10.47;3.97;;;1.70;99.90;0.80;101333;;;;551047;257;24178;-75
2023/01/28 09:25:14;;;;;;;6.03;3.50;;;1.70;99.90;0.90;101330;;;;552264;257;25166;-74
2023/01/28 09:27:42;;;;;;;4.27;3.70;;;1.80;99.90;1.00;101349;;;;550695;257;25354;-79
2023/01/28 09:30:10;;;;;;;7.37;3.53;;;1.80;99.90;0.90;101344;;;;550555;257;24113;-79
2023/01/28 09:32:41;;;;;;;6.78;5.00;;;1.80;99.90;0.90;101342;;;;553160;257;35549;-77
2023/01/28 09:35:05;;;;;;;7.07;4.30;;;1.80;99.90;0.90;101346;;;;548317;257;24190;-77
2023/01/28 09:37:33;;;;;;;5.83;4.10;;;1.80;99.90;0.90;101340;;;;548657;257;24117;-78
2023/01/28 09:40:01;;;;;;;4.43;3.37;;;1.80;99.90;1.00;101350;;;;550666;257;24128;-79
2023/01/28 09:42:39;;;;;;;3.50;3.20;;;1.80;99.90;1.00;101346;;;;548653;257;24155;-74
2023/01/28 09:45:16;;;;;;;2.60;2.33;;;1.80;99.90;1.00;101333;;;;548601;257;24140;-75
2023/01/28 09:47:56;;;;;;;4.40;3.47;;;1.90;99.90;1.10;101337;;;;549444;257;24170;-78
2023/01/28 09:50:30;;;;;;;10.70;3.90;;;1.90;99.90;1.10;101335;;;;542262;260;24180;-77
2023/01/28 09:52:58;;;;;;;4.57;3.70;;;1.90;99.90;1.20;101333;;;;549323;256;24128;-77
2023/01/28 09:55:31;;;;;;;3.47;3.17;;;1.90;99.90;1.20;101333;;;;549355;257;24139;-78
2023/01/28 09:57:59;;;;;;;5.97;3.90;;;2.00;99.90;1.30;101329;;;;548652;258;24228;-74
2023/01/28 10:00:33;;;;;;;6.97;4.20;;;2.10;99.90;1.40;101318;;;;549301;257;24121;-77
2023/01/28 10:03:19;;;;;;;3.93;3.53;;;2.20;99.90;1.50;101323;;;;542449;260;24223;-75
2023/01/28 10:06:20;;;;;;;6.90;5.28;;;2.30;99.90;1.50;101331;;;;543859;257;35475;-78
2023/01/28 10:08:59;;;;;;;5.87;4.23;;;2.30;99.90;1.60;101325;;;;548927;257;24156;-75
2023/01/28 10:11:51;;;;;;;7.03;4.13;;;2.40;99.90;1.70;101326;;;;548736;257;24145;-79
2023/01/28 10:14:37;;;;;;;8.07;4.13;;;2.50;99.90;1.80;101327;;;;557196;257;24185;-78
2023/01/28 10:17:20;;;;;;;5.37;3.50;;;2.50;99.90;1.80;101326;;;;550513;257;24132;-79
2023/01/28 10:19:54;;;;;;;4.53;3.87;;;2.60;99.90;1.90;101321;;;;548786;257;24116;-76
2023/01/28 10:22:24;;;;;;;5.90;4.13;;;2.60;99.90;1.90;101313;;;;545155;260;24184;-79
2023/01/28 10:24:57;;;;;;;7.60;4.00;;;2.70;99.90;1.90;101317;;;;548612;257;24146;-79
2023/01/28 10:27:23;;;;;;;5.13;3.43;;;2.70;99.90;2.00;101315;;;;549089;257;24156;-77
2023/01/28 10:29:52;;;;;;;6.63;4.00;;;2.80;99.90;2.00;101309;;;;548937;257;24148;-75
2023/01/28 10:32:23;;;;;;;5.17;3.90;;;2.80;99.90;2.10;101298;;;;548838;257;24165;-74
2023/01/28 10:34:50;;;;;;;9.33;4.33;;;2.80;99.90;2.10;101304;;;;541734;260;24208;-73
2023/01/28 10:37:22;;;;;;;12.27;4.20;;;2.90;99.90;2.20;101304;;;;548923;257;24140;-76
2023/01/28 10:39:46;;;;;;;3.53;3.00;;;2.90;99.90;2.20;101308;;;;548324;257;24127;-76
2023/01/28 10:42:20;;;;;;;7.20;3.60;;;2.90;99.90;2.20;101286;;;;548878;257;24133;-75
2023/01/28 10:44:48;;;;;;;8.90;4.03;;;2.90;99.90;2.20;101280;;;;548570;257;24173;-74
2023/01/28 10:47:16;;;;;;;5.17;3.57;;;2.90;99.90;2.20;101294;;;;548919;257;24128;-73
2023/01/28 10:49:44;;;;;;;7.63;3.77;;;2.90;99.90;2.20;101296;;;;548235;257;24162;-77
2023/01/28 10:52:15;;;;;;;5.63;3.50;;;3.00;99.90;2.30;101292;;;;548597;257;24168;-78
2023/01/28 10:54:43;;;;;;;8.17;3.50;;;3.00;99.90;2.40;101285;;;;546016;257;24136;-77
2023/01/28 10:57:11;;;;;;;7.70;4.40;;;3.10;99.90;2.40;101286;;;;550800;257;24181;-79
2023/01/28 10:59:41;;;;;;;5.77;3.43;;;3.10;99.90;2.50;101275;;;;548242;257;24172;-78
2023/01/28 11:02:31;;;;;;;3.67;2.77;;;3.10;99.90;2.50;101284;;;;546546;256;24133;-79
2023/01/28 11:05:04;;;;;;;3.60;3.13;;;3.20;99.90;2.60;101275;;;;549045;257;24122;-80
2023/01/28 11:07:32;;;;;;;3.67;2.63;;;3.20;99.90;2.60;101281;;;;549540;259;24190;-79
2023/01/28 11:10:04;;;;;;;4.30;3.20;;;3.30;99.90;2.60;101278;;;;548998;257;24179;-77
2023/01/28 11:12:28;;;;;;;4.57;2.73;;;3.30;99.90;2.60;101272;;;;549032;257;24131;-78
2023/01/28 11:14:59;;;;;;;6.87;3.37;;;3.30;99.90;2.70;101278;;;;548818;257;24136;-76
2023/01/28 11:17:30;;;;;;;4.13;3.07;;;3.30;99.90;2.70;101282;;;;548840;257;24126;-77
2023/01/28 11:19:59;;;;;;;7.07;3.73;;;3.40;99.90;2.70;101275;;;;542400;260;24202;-77
2023/01/28 11:22:36;;;;;;;7.70;3.63;;;3.40;99.90;2.70;101267;;;;548622;255;24190;-74
2023/01/28 11:25:31;;;;;;;6.47;3.87;;;3.40;99.90;2.70;101270;;;;548708;257;24161;-74
2023/01/28 11:27:59;;;;;;;8.57;4.93;;;3.40;99.90;2.80;101271;;;;551005;257;24135;-74
2023/01/28 11:30:26;;;;;;;8.13;3.70;;;3.40;99.90;2.80;101281;;;;548622;257;24122;-75
2023/01/28 11:32:59;;;;;;;7.37;4.23;;;3.40;99.90;2.80;101268;;;;548601;257;24131;-77
2023/01/28 11:35:28;;;;;;;4.33;3.20;;;3.50;99.90;2.80;101273;;;;542213;260;24183;-78
2023/01/28 11:37:56;;;;;;;6.53;3.60;;;3.50;99.90;2.90;101253;;;;547624;257;24138;-76
2023/01/28 11:40:22;;;;;;;3.33;3.00;;;3.60;99.90;2.90;101268;;;;548511;257;24293;-77
2023/01/28 11:42:56;;;;;;;3.53;2.97;;;3.60;99.90;2.90;101259;;;;548226;257;24149;-76
2023/01/28 11:45:20;;;;;;;3.27;2.93;;;3.60;99.90;2.90;101253;;;;551186;257;24233;-77
2023/01/28 11:47:58;;;;;;;4.00;2.87;;;3.70;99.90;3.00;101251;;;;545957;257;24135;-74
2023/01/28 11:50:50;;;;;;;4.87;2.87;;;3.60;99.90;3.00;101241;;;;541659;260;24235;-78
2023/01/28 11:53:55;;;;;;;5.73;3.57;;;3.70;99.90;3.00;101246;;;;548327;257;24120;-77
2023/01/28 11:56:38;;;;;;;3.17;2.60;;;3.70;99.90;3.00;101251;;;;551707;257;24131;-78
2023/01/28 11:59:06;;;;;;;4.33;3.07;;;3.70;99.90;3.10;101248;;;;547121;257;24149;-77
2023/01/28 12:01:48;;;;;;;5.20;3.47;;;3.70;99.90;3.10;101241;;;;539652;260;24176;-77
2023/01/28 12:04:38;;;;;;;5.10;3.50;;;3.70;99.90;3.10;101238;;;;548338;257;24145;-77
2023/01/28 12:07:14;;;;;;;4.20;3.13;;;3.70;99.90;3.00;101241;;;;542879;260;24191;-77